sensor_id;sensor_type;location;lat;lon;timestamp;pressure;altitude;pressure_sealevel;temperature;humidity
2178;BME280;1095;50.992;6.798;2023-01-26T00:01:50;101874.47;;;-1.46;100.00
2178;BME280;1095;50.992;6.798;2023-01-26T00:04:18;101874.28;;;-1.41;100.00
2178;BME280;1095;50.992;6.798;2023-01-26T00:06:44;101866.88;;;-1.49;100.00
2178;BME280;1095;50.992;6.798;2023-01-26T00:09:12;101864.88;;;-1.41;100.00
2178;BME280;1095;50.992;6.798;2023-01-26T00:11:39;101856.50;;;-1.46;100.00
2178;BME280;1095;50.992;6.798;2023-01-26T00:14:06;101864.25;;;-1.47;100.00
2178;BME280;1095;50.992;6.798;2023-01-26T00:16:34;101857.44;;;-1.48;100.00
2178;BME280;1095;50.992;6.798;2023-01-26T00:19:00;101857.13;;;-1.39;100.00
2178;BME280;1095;50.992;6.798;2023-01-26T00:21:27;101854.81;;;-1.47;100.00
2178;BME280;1095;50.992;6.798;2023-01-26T00:23:54;101845.41;;;-1.46;100.00
2178;BME280;1095;50.992;6.798;2023-01-26T00:26:22;101849.53;;;-1.42;100.00
2178;BME280;1095;50.992;6.798;2023-01-26T00:28:49;101839.38;;;-1.45;100.00
2178;BME280;1095;50.992;6.798;2023-01-26T00:31:18;101826.09;;;-1.58;100.00
2178;BME280;1095;50.992;6.798;2023-01-26T00:33:47;101823.78;;;-1.41;100.00
2178;BME280;1095;50.992;6.798;2023-01-26T00:36:13;101814.34;;;-1.40;100.00
2178;BME280;1095;50.992;6.798;2023-01-26T00:38:40;101821.59;;;-1.51;100.00
2178;BME280;1095;50.992;6.798;2023-01-26T00:41:07;101821.00;;;-1.59;100.00
2178;BME280;1095;50.992;6.798;2023-01-26T00:43:54;101824.59;;;-1.65;100.00
2178;BME280;1095;50.992;6.798;2023-01-26T00:46:21;101811.97;;;-1.71;100.00
2178;BME280;1095;50.992;6.798;2023-01-26T00:48:49;101806.94;;;-1.74;100.00
2178;BME280;1095;50.992;6.798;2023-01-26T00:51:15;101809.16;;;-1.63;100.00
2178;BME280;1095;50.992;6.798;2023-01-26T00:53:42;101810.94;;;-1.65;100.00
2178;BME280;1095;50.992;6.798;2023-01-26T00:56:08;101811.53;;;-1.57;100.00
2178;BME280;1095;50.992;6.798;2023-01-26T00:58:35;101809.00;;;-1.59;100.00
2178;BME280;1095;50.992;6.798;2023-01-26T01:01:02;101805.56;;;-1.58;100.00
2178;BME280;1095;50.992;6.798;2023-01-26T01:03:28;101799.38;;;-1.52;100.00
2178;BME280;1095;50.992;6.798;2023-01-26T01:05:56;101801.25;;;-1.57;100.00
2178;BME280;1095;50.992;6.798;2023-01-26T01:08:23;101799.38;;;-1.52;100.00
2178;BME280;1095;50.992;6.798;2023-01-26T01:10:50;101803.31;;;-1.69;100.00
2178;BME280;1095;50.992;6.798;2023-01-26T01:13:27;101791.38;;;-1.70;100.00
2178;BME280;1095;50.992;6.798;2023-01-26T01:15:54;101786.16;;;-1.67;100.00
2178;BME280;1095;50.992;6.798;2023-01-26T01:18:20;101795.13;;;-1.80;100.00
2178;BME280;1095;50.992;6.798;2023-01-26T01:20:47;101791.81;;;-1.83;100.00
2178;BME280;1095;50.992;6.798;2023-01-26T01:23:15;101787.56;;;-1.84;100.00
2178;BME280;1095;50.992;6.798;2023-01-26T01:25:41;101793.06;;;-1.69;100.00
2178;BME280;1095;50.992;6.798;2023-01-26T01:28:08;101783.59;;;-1.67;100.00
2178;BME280;1095;50.992;6.798;2023-01-26T01:30:36;101777.38;;;-1.59;100.00
2178;BME280;1095;50.992;6.798;2023-01-26T01:33:03;101783.19;;;-1.54;100.00
2178;BME280;1095;50.992;6.798;2023-01-26T01:35:29;101780.19;;;-1.67;100.00
2178;BME280;1095;50.992;6.798;2023-01-26T01:37:58;101785.41;;;-1.70;100.00
2178;BME280;1095;50.992;6.798;2023-01-26T01:40:26;101771.59;;;-1.66;100.00
2178;BME280;1095;50.992;6.798;2023-01-26T01:42:53;101775.59;;;-1.57;100.00
2178;BME280;1095;50.992;6.798;2023-01-26T01:45:41;101774.69;;;-1.56;100.00
2178;BME280;1095;50.992;6.798;2023-01-26T01:48:14;101768.59;;;-1.52;100.00
2178;BME280;1095;50.992;6.798;2023-01-26T01:50:43;101759.16;;;-1.52;100.00
2178;BME280;1095;50.992;6.798;2023-01-26T01:53:13;101764.97;;;-1.47;100.00
2178;BME280;1095;50.992;6.798;2023-01-26T01:55:44;101764.03;;;-1.44;100.00
2178;BME280;1095;50.992;6.798;2023-01-26T01:58:11;101767.19;;;-1.38;100.00
2178;BME280;1095;50.992;6.798;2023-01-26T02:00:38;101753.41;;;-1.35;100.00
2178;BME280;1095;50.992;6.798;2023-01-26T02:03:06;101757.88;;;-1.40;100.00
2178;BME280;1095;50.992;6.798;2023-01-26T02:05:42;101753.47;;;-1.37;100.00
2178;BME280;1095;50.992;6.798;2023-01-26T02:08:13;101746.94;;;-1.45;100.00
2178;BME280;1095;50.992;6.798;2023-01-26T02:10:43;101750.13;;;-1.39;100.00
2178;BME280;1095;50.992;6.798;2023-01-26T02:13:12;101746.56;;;-1.35;100.00
2178;BME280;1095;50.992;6.798;2023-01-26T02:15:41;101739.66;;;-1.33;100.00
2178;BME280;1095;50.992;6.798;2023-01-26T02:18:08;101740.47;;;-1.32;100.00
2178;BME280;1095;50.992;6.798;2023-01-26T02:20:41;101742.25;;;-1.34;100.00
2178;BME280;1095;50.992;6.798;2023-01-26T02:23:18;101733.03;;;-1.40;100.00
2178;BME280;1095;50.992;6.798;2023-01-26T02:25:57;101736.44;;;-1.39;100.00
2178;BME280;1095;50.992;6.798;2023-01-26T02:28:25;101728.69;;;-1.38;100.00
2178;BME280;1095;50.992;6.798;2023-01-26T02:30:53;101720.78;;;-1.31;100.00
2178;BME280;1095;50.992;6.798;2023-01-26T02:33:23;101718.53;;;-1.41;100.00
2178;BME280;1095;50.992;6.798;2023-01-26T02:35:50;101722.91;;;-1.43;100.00
2178;BME280;1095;50.992;6.798;2023-01-26T02:38:18;101724.44;;;-1.39;100.00
2178;BME280;1095;50.992;6.798;2023-01-26T02:40:50;101710.78;;;-1.39;100.00
2178;BME280;1095;50.992;6.798;2023-01-26T02:43:21;101709.16;;;-1.42;100.00
2178;BME280;1095;50.992;6.798;2023-01-26T02:45:47;101705.63;;;-1.39;100.00
2178;BME280;1095;50.992;6.798;2023-01-26T02:48:14;101711.13;;;-1.48;100.00
2178;BME280;1095;50.992;6.798;2023-01-26T02:51:01;101713.56;;;-1.45;100.00
2178;BME280;1095;50.992;6.798;2023-01-26T02:53:26;101720.34;;;-1.43;100.00
2178;BME280;1095;50.992;6.798;2023-01-26T02:55:53;101717.97;;;-1.49;100.00
2178;BME280;1095;50.992;6.798;2023-01-26T02:58:20;101711.91;;;-1.46;100.00
2178;BME280;1095;50.992;6.798;2023-01-26T03:00:47;101705.69;;;-1.41;100.00
2178;BME280;1095;50.992;6.798;2023-01-26T03:03:14;101711.66;;;-1.40;100.00
2178;BME280;1095;50.992;6.798;2023-01-26T03:05:42;101706.66;;;-1.43;100.00
2178;BME280;1095;50.992;6.798;2023-01-26T03:08:08;101701.44;;;-1.42;100.00
2178;BME280;1095;50.992;6.798;2023-01-26T03:10:35;101708.44;;;-1.45;100.00
2178;BME280;1095;50.992;6.798;2023-01-26T03:13:02;101711.78;;;-1.43;100.00
2178;BME280;1095;50.992;6.798;2023-01-26T03:15:30;101707.66;;;-1.47;100.00
2178;BME280;1095;50.992;6.798;2023-01-26T03:18:17;101713.47;;;-1.42;100.00
2178;BME280;1095;50.992;6.798;2023-01-26T03:21:04;101705.63;;;-1.39;100.00
2178;BME280;1095;50.992;6.798;2023-01-26T03:23:49;101697.59;;;-1.53;100.00
2178;BME280;1095;50.992;6.798;2023-01-26T03:26:34;101696.91;;;-1.58;100.00
2178;BME280;1095;50.992;6.798;2023-01-26T03:29:19;101700.91;;;-1.50;100.00
2178;BME280;1095;50.992;6.798;2023-01-26T03:31:47;101696.59;;;-1.49;100.00
2178;BME280;1095;50.992;6.798;2023-01-26T03:34:14;101708.66;;;-1.51;100.00
2178;BME280;1095;50.992;6.798;2023-01-26T03:36:40;101711.38;;;-1.56;100.00
2178;BME280;1095;50.992;6.798;2023-01-26T03:39:07;101711.00;;;-1.45;100.00
2178;BME280;1095;50.992;6.798;2023-01-26T03:41:34;101696.66;;;-1.51;100.00
2178;BME280;1095;50.992;6.798;2023-01-26T03:44:18;101689.69;;;-1.47;100.00
2178;BME280;1095;50.992;6.798;2023-01-26T03:47:04;101702.53;;;-1.47;100.00
2178;BME280;1095;50.992;6.798;2023-01-26T03:49:48;101695.91;;;-1.54;100.00
2178;BME280;1095;50.992;6.798;2023-01-26T03:52:32;101699.97;;;-1.47;100.00
2178;BME280;1095;50.992;6.798;2023-01-26T03:55:16;101694.72;;;-1.44;100.00
2178;BME280;1095;50.992;6.798;2023-01-26T03:58:00;101703.22;;;-1.42;100.00
2178;BME280;1095;50.992;6.798;2023-01-26T04:00:27;101692.09;;;-1.43;100.00
2178;BME280;1095;50.992;6.798;2023-01-26T04:02:55;101676.50;;;-1.38;100.00
2178;BME280;1095;50.992;6.798;2023-01-26T04:05:39;101676.03;;;-1.48;100.00
2178;BME280;1095;50.992;6.798;2023-01-26T04:08:23;101686.53;;;-1.55;100.00
2178;BME280;1095;50.992;6.798;2023-01-26T04:10:52;101686.53;;;-1.55;100.00
2178;BME280;1095;50.992;6.798;2023-01-26T04:13:20;101694.94;;;-1.50;100.00
2178;BME280;1095;50.992;6.798;2023-01-26T04:16:05;101688.22;;;-1.54;100.00
2178;BME280;1095;50.992;6.798;2023-01-26T04:18:51;101697.66;;;-1.55;100.00
2178;BME280;1095;50.992;6.798;2023-01-26T04:21:36;101697.50;;;-1.50;100.00
2178;BME280;1095;50.992;6.798;2023-01-26T04:24:04;101691.88;;;-1.61;100.00
2178;BME280;1095;50.992;6.798;2023-01-26T04:26:39;101693.16;;;-1.48;100.00
2178;BME280;1095;50.992;6.798;2023-01-26T04:29:08;101685.41;;;-1.47;100.00
2178;BME280;1095;50.992;6.798;2023-01-26T04:31:35;101683.72;;;-1.48;100.00
2178;BME280;1095;50.992;6.798;2023-01-26T04:34:04;101678.53;;;-1.46;100.00
2178;BME280;1095;50.992;6.798;2023-01-26T04:36:32;101679.31;;;-1.44;100.00
2178;BME280;1095;50.992;6.798;2023-01-26T04:38:59;101683.41;;;-1.40;100.00
2178;BME280;1095;50.992;6.798;2023-01-26T04:41:27;101683.66;;;-1.46;100.00
2178;BME280;1095;50.992;6.798;2023-01-26T04:43:54;101684.56;;;-1.47;100.00
2178;BME280;1095;50.992;6.798;2023-01-26T04:46:21;101681.41;;;-1.55;100.00
2178;BME280;1095;50.992;6.798;2023-01-26T04:48:48;101691.41;;;-1.48;100.00
2178;BME280;1095;50.992;6.798;2023-01-26T04:51:18;101684.28;;;-1.64;100.00
2178;BME280;1095;50.992;6.798;2023-01-26T04:53:45;101689.00;;;-1.52;100.00
2178;BME280;1095;50.992;6.798;2023-01-26T04:56:18;101691.47;;;-1.49;100.00
2178;BME280;1095;50.992;6.798;2023-01-26T04:58:46;101694.03;;;-1.49;100.00
2178;BME280;1095;50.992;6.798;2023-01-26T05:01:12;101694.09;;;-1.51;100.00
2178;BME280;1095;50.992;6.798;2023-01-26T05:03:39;101695.78;;;-1.50;100.00
2178;BME280;1095;50.992;6.798;2023-01-26T05:06:06;101692.47;;;-1.53;100.00
2178;BME280;1095;50.992;6.798;2023-01-26T05:08:35;101684.88;;;-1.56;100.00
2178;BME280;1095;50.992;6.798;2023-01-26T05:11:02;101684.19;;;-1.61;100.00
2178;BME280;1095;50.992;6.798;2023-01-26T05:13:29;101685.19;;;-1.65;100.00
2178;BME280;1095;50.992;6.798;2023-01-26T05:15:55;101682.50;;;-1.62;100.00
2178;BME280;1095;50.992;6.798;2023-01-26T05:18:22;101686.75;;;-1.61;100.00
2178;BME280;1095;50.992;6.798;2023-01-26T05:20:49;101685.75;;;-1.57;100.00
2178;BME280;1095;50.992;6.798;2023-01-26T05:23:15;101679.16;;;-1.64;100.00
2178;BME280;1095;50.992;6.798;2023-01-26T05:25:43;101680.72;;;-1.60;100.00
2178;BME280;1095;50.992;6.798;2023-01-26T05:28:10;101683.19;;;-1.57;100.00
2178;BME280;1095;50.992;6.798;2023-01-26T05:30:36;101682.19;;;-1.53;100.00
2178;BME280;1095;50.992;6.798;2023-01-26T05:33:04;101687.97;;;-1.47;100.00
2178;BME280;1095;50.992;6.798;2023-01-26T05:35:31;101688.91;;;-1.49;100.00
2178;BME280;1095;50.992;6.798;2023-01-26T05:37:58;101684.88;;;-1.56;100.00
2178;BME280;1095;50.992;6.798;2023-01-26T05:40:25;101688.47;;;-1.62;100.00
2178;BME280;1095;50.992;6.798;2023-01-26T05:42:53;101683.41;;;-1.63;100.00
2178;BME280;1095;50.992;6.798;2023-01-26T05:45:20;101681.63;;;-1.61;100.00
2178;BME280;1095;50.992;6.798;2023-01-26T05:47:47;101689.06;;;-1.54;100.00
2178;BME280;1095;50.992;6.798;2023-01-26T05:50:14;101697.44;;;-1.49;100.00
2178;BME280;1095;50.992;6.798;2023-01-26T05:52:42;101696.72;;;-1.52;100.00
2178;BME280;1095;50.992;6.798;2023-01-26T05:55:11;101701.94;;;-1.55;100.00
2178;BME280;1095;50.992;6.798;2023-01-26T05:57:38;101706.88;;;-1.49;100.00
2178;BME280;1095;50.992;6.798;2023-01-26T06:00:08;101693.34;;;-1.54;100.00
2178;BME280;1095;50.992;6.798;2023-01-26T06:02:35;101697.44;;;-1.49;100.00
2178;BME280;1095;50.992;6.798;2023-01-26T06:05:01;101691.63;;;-1.54;100.00
2178;BME280;1095;50.992;6.798;2023-01-26T06:07:28;101706.66;;;-1.43;100.00
2178;BME280;1095;50.992;6.798;2023-01-26T06:09:55;101709.28;;;-1.45;100.00
2178;BME280;1095;50.992;6.798;2023-01-26T06:12:22;101699.00;;;-1.45;100.00
2178;BME280;1095;50.992;6.798;2023-01-26T06:14:49;101701.22;;;-1.36;100.00
2178;BME280;1095;50.992;6.798;2023-01-26T06:17:17;101719.22;;;-1.36;100.00
2178;BME280;1095;50.992;6.798;2023-01-26T06:19:44;101708.22;;;-1.39;100.00
2178;BME280;1095;50.992;6.798;2023-01-26T06:22:12;101718.59;;;-1.42;100.00
2178;BME280;1095;50.992;6.798;2023-01-26T06:24:38;101720.09;;;-1.37;100.00
2178;BME280;1095;50.992;6.798;2023-01-26T06:27:06;101720.09;;;-1.37;100.00
2178;BME280;1095;50.992;6.798;2023-01-26T06:29:34;101722.34;;;-1.27;100.00
2178;BME280;1095;50.992;6.798;2023-01-26T06:32:00;101713.22;;;-1.36;100.00
2178;BME280;1095;50.992;6.798;2023-01-26T06:34:28;101713.06;;;-1.31;100.00
2178;BME280;1095;50.992;6.798;2023-01-26T06:36:55;101710.72;;;-1.38;100.00
2178;BME280;1095;50.992;6.798;2023-01-26T06:39:21;101709.72;;;-1.34;100.00
2178;BME280;1095;50.992;6.798;2023-01-26T06:41:48;101711.56;;;-1.37;100.00
2178;BME280;1095;50.992;6.798;2023-01-26T06:44:15;101723.50;;;-1.36;100.00
2178;BME280;1095;50.992;6.798;2023-01-26T06:46:41;101719.94;;;-1.32;100.00
2178;BME280;1095;50.992;6.798;2023-01-26T06:49:08;101716.78;;;-1.40;100.00
2178;BME280;1095;50.992;6.798;2023-01-26T06:51:44;101724.13;;;-1.29;100.00
2178;BME280;1095;50.992;6.798;2023-01-26T06:54:12;101720.78;;;-1.31;100.00
2178;BME280;1095;50.992;6.798;2023-01-26T06:56:39;101721.41;;;-1.25;100.00
2178;BME280;1095;50.992;6.798;2023-01-26T06:59:06;101729.09;;;-1.25;100.00
2178;BME280;1095;50.992;6.798;2023-01-26T07:01:37;101729.31;;;-1.31;100.00
2178;BME280;1095;50.992;6.798;2023-01-26T07:04:04;101731.09;;;-1.33;100.00
2178;BME280;1095;50.992;6.798;2023-01-26T07:06:31;101735.09;;;-1.24;100.00
2178;BME280;1095;50.992;6.798;2023-01-26T07:08:59;101731.84;;;-1.29;100.00
2178;BME280;1095;50.992;6.798;2023-01-26T07:11:26;101727.53;;;-1.29;100.00
2178;BME280;1095;50.992;6.798;2023-01-26T07:13:55;101730.88;;;-1.27;100.00
2178;BME280;1095;50.992;6.798;2023-01-26T07:16:21;101729.09;;;-1.25;100.00
2178;BME280;1095;50.992;6.798;2023-01-26T07:18:48;101721.50;;;-1.28;100.00
2178;BME280;1095;50.992;6.798;2023-01-26T07:21:16;101715.44;;;-1.25;100.00
2178;BME280;1095;50.992;6.798;2023-01-26T07:23:43;101718.69;;;-1.20;100.00
2178;BME280;1095;50.992;6.798;2023-01-26T07:26:11;101728.84;;;-1.17;100.00
2178;BME280;1095;50.992;6.798;2023-01-26T07:28:38;101727.78;;;-1.12;100.00
2178;BME280;1095;50.992;6.798;2023-01-26T07:31:06;101727.06;;;-1.15;100.00
2178;BME280;1095;50.992;6.798;2023-01-26T07:33:33;101733.75;;;-1.11;100.00
2178;BME280;1095;50.992;6.798;2023-01-26T07:36:00;101736.28;;;-1.10;100.00
2178;BME280;1095;50.992;6.798;2023-01-26T07:38:27;101733.50;;;-1.04;100.00
2178;BME280;1095;50.992;6.798;2023-01-26T07:40:54;101736.97;;;-1.05;100.00
2178;BME280;1095;50.992;6.798;2023-01-26T07:43:22;101737.06;;;-1.08;100.00
2178;BME280;1095;50.992;6.798;2023-01-26T07:45:50;101739.63;;;-1.08;100.00
2178;BME280;1095;50.992;6.798;2023-01-26T07:48:18;101740.25;;;-1.01;100.00
2178;BME280;1095;50.992;6.798;2023-01-26T07:50:45;101739.41;;;-1.02;100.00
2178;BME280;1095;50.992;6.798;2023-01-26T07:53:13;101734.38;;;-1.05;100.00
2178;BME280;1095;50.992;6.798;2023-01-26T07:55:43;101739.75;;;-1.11;100.00
2178;BME280;1095;50.992;6.798;2023-01-26T07:58:10;101734.59;;;-1.11;100.00
2178;BME280;1095;50.992;6.798;2023-01-26T08:00:39;101735.44;;;-1.10;100.00
2178;BME280;1095;50.992;6.798;2023-01-26T08:03:06;101745.28;;;-0.98;100.00
2178;BME280;1095;50.992;6.798;2023-01-26T08:05:33;101730.72;;;-0.97;100.00
2178;BME280;1095;50.992;6.798;2023-01-26T08:08:03;101732.13;;;-0.90;100.00
2178;BME280;1095;50.992;6.798;2023-01-26T08:10:30;101728.44;;;-0.83;100.00
2178;BME280;1095;50.992;6.798;2023-01-26T08:12:57;101735.16;;;-0.79;100.00
2178;BME280;1095;50.992;6.798;2023-01-26T08:15:24;101737.09;;;-0.86;100.00
2178;BME280;1095;50.992;6.798;2023-01-26T08:17:53;101744.81;;;-0.86;100.00
2178;BME280;1095;50.992;6.798;2023-01-26T08:20:20;101748.00;;;-0.79;100.00
2178;BME280;1095;50.992;6.798;2023-01-26T08:22:47;101740.28;;;-0.79;100.00
2178;BME280;1095;50.992;6.798;2023-01-26T08:25:13;101752.13;;;-0.75;100.00
2178;BME280;1095;50.992;6.798;2023-01-26T08:27:40;101748.56;;;-0.71;100.00
2178;BME280;1095;50.992;6.798;2023-01-26T08:30:08;101758.72;;;-0.68;100.00
2178;BME280;1095;50.992;6.798;2023-01-26T08:32:35;101746.09;;;-0.74;100.00
2178;BME280;1095;50.992;6.798;2023-01-26T08:35:03;101740.81;;;-0.70;100.00
2178;BME280;1095;50.992;6.798;2023-01-26T08:37:30;101749.91;;;-0.61;100.00
2178;BME280;1095;50.992;6.798;2023-01-26T08:39:57;101751.69;;;-0.63;100.00
2178;BME280;1095;50.992;6.798;2023-01-26T08:42:23;101745.59;;;-0.60;100.00
2178;BME280;1095;50.992;6.798;2023-01-26T08:44:50;101752.97;;;-0.51;100.00
2178;BME280;1095;50.992;6.798;2023-01-26T08:47:17;101755.50;;;-0.50;100.00
2178;BME280;1095;50.992;6.798;2023-01-26T08:49:44;101750.34;;;-0.50;100.00
2178;BME280;1095;50.992;6.798;2023-01-26T08:52:12;101750.97;;;-0.45;100.00
2178;BME280;1095;50.992;6.798;2023-01-26T08:54:38;101753.56;;;-0.45;100.00
2178;BME280;1095;50.992;6.798;2023-01-26T08:57:05;101749.97;;;-0.41;100.00
2178;BME280;1095;50.992;6.798;2023-01-26T08:59:32;101757.44;;;-0.56;100.00
2178;BME280;1095;50.992;6.798;2023-01-26T09:01:58;101754.22;;;-0.40;100.00
2178;BME280;1095;50.992;6.798;2023-01-26T09:04:25;101759.91;;;-0.31;100.00
2178;BME280;1095;50.992;6.798;2023-01-26T09:06:52;101761.59;;;-0.30;100.00
2178;BME280;1095;50.992;6.798;2023-01-26T09:09:21;101757.34;;;-0.31;100.00
2178;BME280;1095;50.992;6.798;2023-01-26T09:11:47;101753.25;;;-0.37;100.00
2178;BME280;1095;50.992;6.798;2023-01-26T09:14:14;101762.53;;;-0.33;100.00
2178;BME280;1095;50.992;6.798;2023-01-26T09:16:40;101762.81;;;-0.41;100.00
2178;BME280;1095;50.992;6.798;2023-01-26T09:19:07;101769.13;;;-0.48;100.00
2178;BME280;1095;50.992;6.798;2023-01-26T09:21:33;101765.50;;;-0.44;100.00
2178;BME280;1095;50.992;6.798;2023-01-26T09:24:00;101766.06;;;-0.36;100.00
2178;BME280;1095;50.992;6.798;2023-01-26T09:26:29;101763.44;;;-0.34;100.00
2178;BME280;1095;50.992;6.798;2023-01-26T09:28:56;101765.06;;;-0.31;100.00
2178;BME280;1095;50.992;6.798;2023-01-26T09:31:22;101768.22;;;-0.25;100.00
2178;BME280;1095;50.992;6.798;2023-01-26T09:33:49;101759.00;;;-0.30;100.00
2178;BME280;1095;50.992;6.798;2023-01-26T09:36:16;101764.28;;;-0.34;100.00
2178;BME280;1095;50.992;6.798;2023-01-26T09:38:43;101774.31;;;-0.27;100.00
2178;BME280;1095;50.992;6.798;2023-01-26T09:41:27;101768.84;;;-0.18;100.00
2178;BME280;1095;50.992;6.798;2023-01-26T09:44:03;101779.19;;;-0.20;100.00
2178;BME280;1095;50.992;6.798;2023-01-26T09:46:39;101782.72;;;-0.22;100.00
2178;BME280;1095;50.992;6.798;2023-01-26T09:49:14;101782.81;;;-0.25;100.00
2178;BME280;1095;50.992;6.798;2023-01-26T09:51:45;101779.34;;;-0.24;100.00
2178;BME280;1095;50.992;6.798;2023-01-26T09:54:20;101758.13;;;-0.29;100.00
2178;BME280;1095;50.992;6.798;2023-01-26T09:56:49;101758.50;;;-0.17;100.00
2178;BME280;1095;50.992;6.798;2023-01-26T09:59:24;101770.28;;;-0.11;100.00
2178;BME280;1095;50.992;6.798;2023-01-26T10:01:58;101771.78;;;-0.06;100.00
2178;BME280;1095;50.992;6.798;2023-01-26T10:04:31;101767.28;;;-0.01;100.00
2178;BME280;1095;50.992;6.798;2023-01-26T10:07:02;101763.47;;;0.08;100.00
2178;BME280;1095;50.992;6.798;2023-01-26T10:09:31;101764.38;;;0.07;100.00
2178;BME280;1095;50.992;6.798;2023-01-26T10:12:01;101754.41;;;-0.01;100.00
2178;BME280;1095;50.992;6.798;2023-01-26T10:14:35;101748.69;;;0.13;100.00
2178;BME280;1095;50.992;6.798;2023-01-26T10:17:06;101758.84;;;-0.04;100.00
2178;BME280;1095;50.992;6.798;2023-01-26T10:19:41;101760.19;;;0.05;100.00
2178;BME280;1095;50.992;6.798;2023-01-26T10:22:13;101753.72;;;0.16;100.00
2178;BME280;1095;50.992;6.798;2023-01-26T10:24:43;101742.00;;;0.09;100.00
2178;BME280;1095;50.992;6.798;2023-01-26T10:27:12;101744.56;;;0.09;100.00
2178;BME280;1095;50.992;6.798;2023-01-26T10:29:40;101748.44;;;-0.01;100.00
2178;BME280;1095;50.992;6.798;2023-01-26T10:32:12;101742.97;;;0.07;100.00
2178;BME280;1095;50.992;6.798;2023-01-26T10:34:39;101742.41;;;0.00;100.00
2178;BME280;1095;50.992;6.798;2023-01-26T10:37:18;101749.06;;;0.04;100.00
2178;BME280;1095;50.992;6.798;2023-01-26T10:39:59;101738.22;;;-0.03;100.00
2178;BME280;1095;50.992;6.798;2023-01-26T10:42:28;101728.34;;;0.07;100.00
2178;BME280;1095;50.992;6.798;2023-01-26T10:44:57;101733.13;;;0.16;100.00
2178;BME280;1095;50.992;6.798;2023-01-26T10:47:27;101736.00;;;0.09;100.00
2178;BME280;1095;50.992;6.798;2023-01-26T10:50:14;101723.34;;;0.04;100.00
2178;BME280;1095;50.992;6.798;2023-01-26T10:52:56;101728.81;;;0.17;100.00
2178;BME280;1095;50.992;6.798;2023-01-26T10:55:23;101718.00;;;0.09;100.00
2178;BME280;1095;50.992;6.798;2023-01-26T10:57:49;101725.53;;;0.13;100.00
2178;BME280;1095;50.992;6.798;2023-01-26T11:00:22;101724.88;;;0.08;100.00
2178;BME280;1095;50.992;6.798;2023-01-26T11:02:51;101729.91;;;0.11;100.00
2178;BME280;1095;50.992;6.798;2023-01-26T11:05:21;101730.25;;;0.24;100.00
2178;BME280;1095;50.992;6.798;2023-01-26T11:07:48;101723.25;;;0.27;100.00
2178;BME280;1095;50.992;6.798;2023-01-26T11:10:22;101717.91;;;0.32;100.00
2178;BME280;1095;50.992;6.798;2023-01-26T11:12:50;101724.72;;;0.33;100.00
2178;BME280;1095;50.992;6.798;2023-01-26T11:15:20;101715.91;;;0.18;100.00
2178;BME280;1095;50.992;6.798;2023-01-26T11:17:50;101713.84;;;0.26;100.00
2178;BME280;1095;50.992;6.798;2023-01-26T11:20:41;101715.66;;;0.24;100.00
2178;BME280;1095;50.992;6.798;2023-01-26T11:23:17;101712.75;;;0.32;100.00
2178;BME280;1095;50.992;6.798;2023-01-26T11:26:15;101708.56;;;0.29;100.00
2178;BME280;1095;50.992;6.798;2023-01-26T11:28:53;101707.66;;;0.30;100.00
2178;BME280;1095;50.992;6.798;2023-01-26T11:31:36;101713.09;;;0.45;100.00
2178;BME280;1095;50.992;6.798;2023-01-26T11:34:19;101706.25;;;0.44;100.00
2178;BME280;1095;50.992;6.798;2023-01-26T11:36:53;101707.16;;;0.43;100.00
2178;BME280;1095;50.992;6.798;2023-01-26T11:39:27;101700.28;;;0.43;100.00
2178;BME280;1095;50.992;6.798;2023-01-26T11:42:09;101708.97;;;0.41;100.00
2178;BME280;1095;50.992;6.798;2023-01-26T11:45:07;101707.94;;;0.45;100.00
2178;BME280;1095;50.992;6.798;2023-01-26T11:47:51;101712.25;;;0.44;100.00
2178;BME280;1095;50.992;6.798;2023-01-26T11:50:29;101700.22;;;0.45;100.00
2178;BME280;1095;50.992;6.798;2023-01-26T11:53:11;101713.91;;;0.45;100.00
2178;BME280;1095;50.992;6.798;2023-01-26T11:55:53;101692.75;;;0.39;100.00
2178;BME280;1095;50.992;6.798;2023-01-26T11:58:30;101694.66;;;0.33;100.00
2178;BME280;1095;50.992;6.798;2023-01-26T12:01:01;101702.47;;;0.32;100.00
2178;BME280;1095;50.992;6.798;2023-01-26T12:03:34;101703.41;;;0.29;100.00
2178;BME280;1095;50.992;6.798;2023-01-26T12:06:06;101700.72;;;0.32;100.00
2178;BME280;1095;50.992;6.798;2023-01-26T12:08:37;101694.84;;;0.29;100.00
2178;BME280;1095;50.992;6.798;2023-01-26T12:11:07;101687.19;;;0.27;100.00
2178;BME280;1095;50.992;6.798;2023-01-26T12:17:14;101694.41;;;0.40;100.00
2178;BME280;1095;50.992;6.798;2023-01-26T12:19:50;101680.06;;;0.34;100.00
2178;BME280;1095;50.992;6.798;2023-01-26T12:22:21;101683.16;;;0.42;100.00
2178;BME280;1095;50.992;6.798;2023-01-26T12:24:53;101684.13;;;0.40;100.00
2178;BME280;1095;50.992;6.798;2023-01-26T12:27:25;101672.84;;;0.42;100.00
2178;BME280;1095;50.992;6.798;2023-01-26T12:30:02;101678.41;;;0.52;100.00
2178;BME280;1095;50.992;6.798;2023-01-26T12:32:32;101670.44;;;0.58;100.00
2178;BME280;1095;50.992;6.798;2023-01-26T12:35:00;101668.28;;;0.68;100.00
2178;BME280;1095;50.992;6.798;2023-01-26T12:37:44;101670.47;;;0.77;100.00
2178;BME280;1095;50.992;6.798;2023-01-26T12:40:22;101657.41;;;0.61;100.00
2178;BME280;1095;50.992;6.798;2023-01-26T12:42:58;101648.09;;;0.58;100.00
2178;BME280;1095;50.992;6.798;2023-01-26T12:45:31;101652.69;;;0.71;100.00
2178;BME280;1095;50.992;6.798;2023-01-26T12:48:06;101649.09;;;0.75;100.00
2178;BME280;1095;50.992;6.798;2023-01-26T12:50:39;101643.94;;;0.75;100.00
2178;BME280;1095;50.992;6.798;2023-01-26T12:53:13;101635.78;;;0.65;100.00
2178;BME280;1095;50.992;6.798;2023-01-26T12:55:43;101640.91;;;0.65;100.00
2178;BME280;1095;50.992;6.798;2023-01-26T12:58:16;101634.38;;;0.58;100.00
2178;BME280;1095;50.992;6.798;2023-01-26T13:00:51;101631.09;;;0.54;100.00
2178;BME280;1095;50.992;6.798;2023-01-26T13:03:21;101633.41;;;0.60;100.00
2178;BME280;1095;50.992;6.798;2023-01-26T13:05:56;101635.97;;;0.60;100.00
2178;BME280;1095;50.992;6.798;2023-01-26T13:08:50;101630.88;;;0.59;100.00
2178;BME280;1095;50.992;6.798;2023-01-26T13:11:43;101636.53;;;0.67;100.00
2178;BME280;1095;50.992;6.798;2023-01-26T13:14:25;101631.53;;;0.64;100.00
2178;BME280;1095;50.992;6.798;2023-01-26T13:16:52;101636.41;;;0.70;100.00
2178;BME280;1095;50.992;6.798;2023-01-26T13:19:35;101636.00;;;0.79;100.00
2178;BME280;1095;50.992;6.798;2023-01-26T13:22:38;101628.69;;;0.70;100.00
2178;BME280;1095;50.992;6.798;2023-01-26T13:25:15;101635.22;;;0.77;100.00